Terminal Aerodrome Forecast
Issued by NWS Jackson, KY

Home | Current Version | Previous Version | Text Only | Print | Product List | Glossary On
Versions: 1 2 3 4 5 6 7 8 9 10 11 12 13 14 15 16 17 18
000
FTUS43 KJKL 271407 AAA
TAFJKL
TAF AMD
KJKL 271407Z 2714/2812 VRB06KT 1/2SM RA FG OVC004
     FM271600 00000KT 6SM -SHRA BR SCT005 BKN015
     FM271700 VRB03KT P6SM -SHRA BKN030
     FM271900 27009G15KT P6SM VCTS BKN030CB=

USA.gov is the U.S. government's official web portal to all federal, state and local government web resources and services.